createdAt,value
2023-02-11T00:13:34.451Z,69.84615384615384
2023-02-11T00:20:49.829Z,68.09698996655518
2023-02-11T00:27:11.430Z,66.18729096989966
2023-02-11T00:36:54.069Z,66.66555183946488
2023-02-11T00:47:05.308Z,65.65217391304348
2023-02-11T00:57:45.628Z,64.00334448160535
2023-02-11T01:05:55.864Z,63.44481605351171
2023-02-11T01:16:38.114Z,62.16722408026756
2023-02-11T01:23:44.617Z,63.080267558528426
2023-02-11T01:34:58.547Z,64.53177257525084
2023-02-11T01:51:53.810Z,59.0066889632107
2023-02-11T01:59:37.218Z,59.18394648829432
2023-02-11T02:09:52.738Z,55.74916387959866
2023-02-11T02:17:03.652Z,55.69230769230769
2023-02-11T02:25:45.729Z,53.56521739130435
2023-02-11T02:32:07.478Z,52.18394648829432
2023-02-11T02:41:53.751Z,52.896321070234116
2023-02-11T02:54:52.512Z,53.491638795986624
2023-02-11T03:01:14.181Z,52.290969899665555
2023-02-11T03:09:01.187Z,52.96989966555184
2023-02-11T03:18:28.657Z,50.50167224080268
2023-02-11T03:33:03.290Z,46.42809364548495
2023-02-11T03:39:25.085Z,48.62207357859532
2023-02-11T03:45:48.403Z,46.40468227424749
2023-02-11T03:52:10.941Z,44.424749163879596
2023-02-11T04:01:21.817Z,42.67892976588629
2023-02-11T04:07:44.116Z,42.27090301003344
2023-02-11T04:14:06.528Z,40.73913043478261
2023-02-11T04:20:27.932Z,39.719063545150505
2023-02-11T04:26:49.967Z,39.51505016722408
2023-02-11T04:38:16.595Z,38.15384615384615
2023-02-11T04:44:38.377Z,36.5819397993311
2023-02-11T04:50:59.941Z,35.52173913043478
2023-02-11T04:57:22.297Z,37.561872909699
2023-02-11T05:03:44.831Z,36.468227424749166
2023-02-11T05:10:07.826Z,36.5685618729097
2023-02-11T05:21:03.444Z,37.441471571906355
2023-02-11T05:27:25.972Z,35.819397993311036
2023-02-11T05:35:36.733Z,34.448160535117054
2023-02-11T05:44:33.034Z,34.046822742474916
2023-02-11T05:50:55.829Z,34.83277591973244
2023-02-11T06:02:01.852Z,33.979933110367895
2023-02-11T06:12:15.948Z,33.2876254180602
2023-02-11T06:27:10.223Z,31.28428093645485
2023-02-11T06:33:33.602Z,32.65886287625418
2023-02-11T06:39:56.374Z,33.87959866220736
2023-02-11T06:51:50.278Z,33.869565217391305
2023-02-11T06:59:05.129Z,36.020066889632105
2023-02-11T07:05:27.373Z,35.20066889632107
2023-02-11T07:11:50.264Z,37.936454849498325
2023-02-11T07:18:14.854Z,33.99665551839465
2023-02-11T07:29:45.723Z,35.642140468227424
2023-02-11T07:44:51.566Z,32.4180602006689
2023-02-11T07:51:16.212Z,33.11036789297659
2023-02-11T07:57:41.408Z,33.21070234113712
2023-02-11T08:04:05.687Z,31.59197324414716
2023-02-11T08:10:30.672Z,32.85953177257525
2023-02-11T08:16:55.289Z,32.02341137123746
2023-02-11T08:23:19.862Z,32.531772575250834
2023-02-11T08:29:46.545Z,30.381270903010034
2023-02-11T08:36:28.907Z,30.418060200668897
2023-02-11T08:54:50.594Z,33.45150501672241
2023-02-11T09:01:29.897Z,29.59531772575251
2023-02-11T09:13:30.103Z,30.729096989966557
2023-02-11T09:19:54.683Z,29.351170568561873
2023-02-11T09:26:19.016Z,30.321070234113712
2023-02-11T09:32:43.178Z,29.160535117056856
2023-02-11T09:39:06.945Z,29.163879598662206
2023-02-11T09:45:30.993Z,28.11371237458194
2023-02-11T09:56:43.316Z,47.23745819397993
2023-02-11T10:03:22.818Z,32.5819397993311
2023-02-11T10:09:59.292Z,29.434782608695652
2023-02-11T10:16:23.391Z,29.224080267558527
2023-02-11T10:22:47.778Z,29.207357859531772
2023-02-11T10:29:12.125Z,29.377926421404684
2023-02-11T10:35:36.761Z,28.22742474916388
2023-02-11T10:42:01.565Z,28.765886287625417
2023-02-11T10:48:25.658Z,28.331103678929765
2023-02-11T10:54:53.552Z,30.22742474916388
2023-02-11T11:01:24.734Z,28.361204013377925
2023-02-11T11:07:50.253Z,28.103678929765888
2023-02-11T11:14:15.765Z,25.722408026755854
2023-02-11T11:21:11.917Z,28.157190635451506
2023-02-11T11:27:36.461Z,27.682274247491637
2023-02-11T11:34:00.522Z,26.73913043478261
2023-02-11T11:41:01.100Z,27.357859531772576
2023-02-11T11:47:24.683Z,30.103678929765888
2023-02-11T11:53:49.443Z,32.76588628762542
2023-02-11T12:01:22.392Z,31.337792642140467
2023-02-11T12:11:49.900Z,28.214046822742475
2023-02-11T12:23:23.288Z,27.11371237458194
2023-02-11T12:29:48.574Z,25.210702341137125
2023-02-11T12:36:13.875Z,24.39464882943144
2023-02-11T12:42:38.665Z,21.297658862876254
2023-02-11T12:49:03.663Z,21.906354515050168
2023-02-11T12:55:28.615Z,22.190635451505017
2023-02-11T13:02:17.451Z,21.505016722408026
2023-02-11T13:21:14.176Z,20.367892976588628
2023-02-11T13:27:39.646Z,24.4247491638796
2023-02-11T13:34:04.994Z,21.19732441471572
2023-02-11T13:40:30.120Z,20.431438127090303
2023-02-11T13:46:55.523Z,21.909698996655518
2023-02-11T13:53:20.139Z,21.68896321070234
2023-02-11T13:59:45.037Z,25.294314381270905
2023-02-11T14:06:09.112Z,25.123745819397993
2023-02-11T14:13:50.099Z,26.62541806020067
2023-02-11T14:20:13.776Z,20.52173913043478
2023-02-11T14:26:47.960Z,20.668896321070235
2023-02-11T14:33:11.751Z,20.933110367892976
2023-02-11T14:47:47.905Z,20.468227424749163
2023-02-11T14:59:15.576Z,20.568561872909697
2023-02-11T15:05:40.491Z,20.37458193979933
2023-02-11T15:16:43.063Z,21.993311036789297
2023-02-11T15:23:07.764Z,22.76923076923077
2023-02-11T15:29:32.327Z,21.52173913043478
2023-02-11T15:35:56.870Z,25.090301003344482
2023-02-11T15:42:52.571Z,30.013377926421406
2023-02-11T15:52:12.972Z,23.735785953177256
2023-02-11T15:58:38.499Z,20.17391304347826
2023-02-11T16:05:57.272Z,21.05351170568562
2023-02-11T16:12:21.765Z,20.759197324414714
2023-02-11T16:18:52.057Z,20.36454849498328
2023-02-11T16:25:21.491Z,20.464882943143813
2023-02-11T16:31:44.470Z,19.217391304347824
2023-02-11T16:43:26.008Z,19.91638795986622
2023-02-11T16:49:48.861Z,20.876254180602007
2023-02-11T17:00:06.972Z,19.237458193979933
2023-02-11T17:06:28.877Z,20.97324414715719
2023-02-11T17:12:51.078Z,21.598662207357858
2023-02-11T17:19:14.582Z,20.725752508361204
2023-02-11T17:26:33.939Z,18.25083612040134
2023-02-11T17:40:57.148Z,17.160535117056856
2023-02-11T17:47:18.490Z,17.91638795986622
2023-02-11T17:56:13.318Z,15.80267558528428
2023-02-11T18:02:36.037Z,16.795986622073578
2023-02-11T18:13:34.575Z,24.7190635451505
2023-02-11T18:19:55.534Z,20.652173913043477
2023-02-11T18:26:17.027Z,17.622073578595316
2023-02-11T18:32:38.629Z,18.307692307692307
2023-02-11T18:38:59.938Z,15.354515050167224
2023-02-11T18:49:15.397Z,23.494983277591974
2023-02-11T18:55:37.334Z,23.598662207357858
2023-02-11T19:01:59.571Z,21.551839464882942
2023-02-11T19:08:21.069Z,22.277591973244146
2023-02-11T19:20:17.616Z,21.39799331103679
2023-02-11T19:29:23.821Z,18.214046822742475
2023-02-11T19:35:45.889Z,16.638795986622075
2023-02-11T19:42:09.824Z,16.68896321070234
2023-02-11T19:48:42.983Z,17.277591973244146
2023-02-11T19:55:04.795Z,16.05685618729097
2023-02-11T20:07:00.285Z,17.51170568561873
2023-02-11T20:13:21.812Z,18.130434782608695
2023-02-11T20:19:43.556Z,17.909698996655518
2023-02-11T20:26:05.384Z,19.565217391304348
2023-02-11T20:33:14.850Z,16.68561872909699
2023-02-11T20:39:37.064Z,16.17725752508361
2023-02-11T20:50:53.246Z,16.51839464882943
2023-02-11T21:02:07.819Z,17.304347826086957
2023-02-11T21:08:37.366Z,16.70903010033445
2023-02-11T21:15:07.216Z,18.224080267558527
2023-02-11T21:24:15.777Z,18.93645484949833
2023-02-11T21:30:44.186Z,16.03344481605351
2023-02-11T21:37:10.639Z,19.076923076923077
2023-02-11T21:43:40.885Z,16.204013377926422
2023-02-11T21:53:45.671Z,15.849498327759198
2023-02-11T22:00:13.057Z,14.384615384615385
2023-02-11T22:06:41.968Z,14.488294314381271
2023-02-11T22:13:08.174Z,15.210702341137123
2023-02-11T22:19:36.919Z,15.782608695652174
2023-02-11T22:36:27.661Z,18.321070234113712
2023-02-11T22:56:31.278Z,16.535117056856187
2023-02-11T23:03:00.935Z,16.301003344481604
2023-02-11T23:12:08.083Z,14.946488294314381
2023-02-11T23:21:06.001Z,16.77257525083612
2023-02-11T23:27:27.593Z,16.85284280936455
2023-02-11T23:33:49.679Z,17.351170568561873
2023-02-11T23:40:11.019Z,16.96989966555184
2023-02-11T23:55:00.043Z,17.612040133779264
